Time;durP1;ratioP1;P1;durP2;ratioP2;P2;SDS_P1;SDS_P2;PMS_P1;PMS_P2;Temp;Humidity;BMP_temperature;BMP_pressure;BME280_temperature;BME280_humidity;BME280_pressure;Samples;Min_cycle;Max_cycle;Signal;HPM_P1;HPM_P2
2022/02/05 00:02:36;;;;;;;32.83;12.03;;;;;;;-1.68;100.00;101023.87;1785011;78;21045;-90
2022/02/05 00:04:58;;;;;;;31.85;10.93;;;;;;;-1.67;100.00;101019.75;1768079;79;21484;-90
2022/02/05 00:07:26;;;;;;;31.73;11.35;;;;;;;-1.67;100.00;101022.39;1786628;78;21543;-91
2022/02/05 00:10:15;;;;;;;27.17;10.78;;;;;;;-1.68;100.00;101028.65;1789321;78;21139;-90
2022/02/05 00:39:25;;;;;;;29.23;10.30;;;;;;;-1.83;100.00;101011.84;1731890;82;21144;-90
2022/02/05 00:41:47;;;;;;;29.00;10.88;;;;;;;-1.86;100.00;101016.97;1727748;82;21075;-88
2022/02/05 00:44:03;;;;;;;26.65;10.03;;;;;;;-1.84;100.00;101021.59;1728035;82;20997;-89
2022/02/05 00:48:58;;;;;;;26.73;9.83;;;;;;;-1.87;100.00;101019.29;1727436;81;21054;-89
2022/02/05 00:51:30;;;;;;;28.20;10.15;;;;;;;-1.91;100.00;101021.95;1727915;83;21068;-90
2022/02/05 00:54:08;;;;;;;25.05;9.95;;;;;;;-1.90;100.00;101019.63;1723919;81;21037;-90
2022/02/05 00:59:19;;;;;;;34.45;10.55;;;;;;;-1.84;100.00;101018.95;1727578;81;21066;-89
2022/02/05 01:01:47;;;;;;;23.45;9.23;;;;;;;-1.85;100.00;101019.95;1728104;81;21058;-90
2022/02/05 01:04:13;;;;;;;22.60;8.83;;;;;;;-1.86;100.00;101020.93;1723995;81;20983;-90
2022/02/05 01:06:40;;;;;;;21.70;8.20;;;;;;;-1.85;100.00;101019.14;1720429;81;21062;-89
2022/02/05 01:09:12;;;;;;;23.07;8.65;;;;;;;-1.88;100.00;101022.94;1696192;81;22012;-90
2022/02/05 01:11:37;;;;;;;22.50;8.35;;;;;;;-1.89;100.00;101027.87;1719656;81;21575;-89
2022/02/05 01:14:06;;;;;;;21.20;8.20;;;;;;;-1.89;100.00;101029.19;1696012;81;21066;-89
2022/02/05 01:16:47;;;;;;;23.12;8.25;;;;;;;-1.86;100.00;101032.81;1719558;81;21109;-89
2022/02/05 01:18:59;;;;;;;24.18;9.18;;;;;;;-1.86;100.00;101034.13;1715982;81;21680;-89
2022/02/05 01:23:59;;;;;;;22.17;8.08;;;;;;;-1.89;100.00;101038.43;1720228;81;21022;-89
2022/02/05 01:26:33;;;;;;;18.73;7.65;;;;;;;-1.86;100.00;101042.56;1715908;81;20955;-89
2022/02/05 01:29:01;;;;;;;21.50;8.58;;;;;;;-1.86;100.00;101042.56;1715703;81;21129;-88
2022/02/05 01:31:27;;;;;;;23.87;8.65;;;;;;;-1.87;100.00;101033.81;1715789;81;21542;-89
2022/02/05 01:50:24;;;;;;;18.20;7.12;;;;;;;-2.01;100.00;101039.77;1653782;86;21137;-89
2022/02/05 01:57:52;;;;;;;17.77;7.47;;;;;;;-2.00;100.00;101045.88;1651605;86;21133;-89
2022/02/05 02:05:55;;;;;;;23.02;8.00;;;;;;;-2.03;100.00;101062.87;1650849;86;21114;-88
2022/02/05 02:21:20;;;;;;;20.08;7.37;;;;;;;-2.19;100.00;101070.80;1513518;94;21459;-88
2022/02/05 02:28:50;;;;;;;16.57;6.97;;;;;;;-2.28;100.00;101067.33;1481281;96;21696;-88
2022/02/05 02:31:15;;;;;;;15.30;6.47;;;;;;;-2.32;100.00;101069.48;1481421;96;21152;-88
2022/02/05 02:33:43;;;;;;;18.02;7.22;;;;;;;-2.35;100.00;101071.13;1513174;93;21147;-89
2022/02/05 02:38:47;;;;;;;18.32;7.78;;;;;;;-2.44;100.00;101069.47;1486735;96;21096;-88
2022/02/05 02:43:37;;;;;;;19.55;7.42;;;;;;;-2.54;100.00;101063.00;1451155;98;21093;-88
2022/02/05 02:46:03;;;;;;;18.85;7.42;;;;;;;-2.58;100.00;101072.24;1450941;98;21632;-87
2022/02/05 02:48:29;;;;;;;17.82;7.00;;;;;;;-2.62;100.00;101075.35;1451178;98;21117;-88
2022/02/05 02:59:01;;;;;;;20.92;7.35;;;;;;;-2.76;100.00;101082.09;1508005;93;21117;-90
2022/02/05 03:01:24;;;;;;;16.73;7.42;;;;;;;-2.77;100.00;101088.34;1512013;93;21196;-90
2022/02/05 03:03:50;;;;;;;19.48;7.08;;;;;;;-2.77;100.00;101085.20;1509612;93;21274;-90
2022/02/05 03:06:16;;;;;;;18.55;7.17;;;;;;;-2.79;100.00;101081.10;1512986;93;20957;-88
2022/02/05 03:08:48;;;;;;;18.85;7.20;;;;;;;-2.81;100.00;101085.20;1511925;93;21614;-89
2022/02/05 03:11:16;;;;;;;16.25;6.70;;;;;;;-2.83;100.00;101084.53;1511344;93;21213;-90
2022/02/05 03:13:41;;;;;;;18.55;7.12;;;;;;;-2.86;100.00;101081.39;1511648;93;21085;-89
2022/02/05 03:16:08;;;;;;;18.05;6.78;;;;;;;-2.92;100.00;101083.34;1514867;94;21028;-89
2022/02/05 03:18:48;;;;;;;17.95;6.85;;;;;;;-2.99;100.00;101086.62;1517798;94;21361;-89
2022/02/05 03:21:01;;;;;;;17.25;6.72;;;;;;;-3.04;100.00;101084.95;1517907;94;21113;-89
2022/02/05 03:23:27;;;;;;;16.48;6.83;;;;;;;-3.07;100.00;101085.77;1518057;94;20936;-89
2022/02/05 03:25:53;;;;;;;17.73;7.65;;;;;;;-3.14;100.00;101087.39;1575190;90;22500;-90
2022/02/05 03:28:20;;;;;;;20.88;7.40;;;;;;;-3.23;100.00;101083.40;1589985;90;21542;-89
2022/02/05 03:30:46;;;;;;;18.85;7.25;;;;;;;-3.28;100.00;101093.58;1589595;90;21493;-89
2022/02/05 03:33:12;;;;;;;19.25;8.23;;;;;;;-3.37;100.00;101091.88;1590125;90;20894;-89
2022/02/05 03:35:38;;;;;;;19.48;7.17;;;;;;;-3.40;100.00;101091.37;1631211;86;20981;-89
2022/02/05 03:38:04;;;;;;;17.23;7.05;;;;;;;-3.47;100.00;101093.78;1657270;86;21071;-90
2022/02/05 03:40:29;;;;;;;18.75;7.20;;;;;;;-3.53;100.00;101093.95;1657534;86;21074;-89
2022/02/05 03:42:55;;;;;;;18.60;7.30;;;;;;;-3.57;100.00;101100.98;1663257;85;20997;-89
2022/02/05 03:45:21;;;;;;;19.12;7.62;;;;;;;-3.64;100.00;101102.59;1663977;85;21003;-89
2022/02/05 03:47:50;;;;;;;16.93;7.20;;;;;;;-3.71;100.00;101099.73;1761482;80;20875;-89
2022/02/05 03:50:15;;;;;;;20.10;7.78;;;;;;;-3.76;100.00;101096.25;1782369;79;21500;-89
2022/02/05 03:52:42;;;;;;;18.77;7.55;;;;;;;-3.85;100.00;101098.50;1782437;80;21104;-89
2022/02/05 03:55:11;;;;;;;15.45;6.83;;;;;;;-3.93;100.00;101092.67;1781805;80;21086;-88
2022/02/05 03:57:37;;;;;;;17.23;7.08;;;;;;;-3.98;100.00;101096.73;1782197;80;21317;-89
2022/02/05 04:00:08;;;;;;;20.65;7.75;;;;;;;-4.05;100.00;101104.91;1782333;80;20864;-90
2022/02/05 04:02:36;;;;;;;18.65;7.42;;;;;;;-4.11;100.00;101104.53;1781989;80;21497;-89
2022/02/05 04:05:02;;;;;;;17.90;8.03;;;;;;;-4.16;100.00;101109.91;1794734;78;21849;-89
2022/02/05 04:07:31;;;;;;;18.62;7.22;;;;;;;-4.21;100.00;101111.66;1806302;78;21071;-89
2022/02/05 04:10:00;;;;;;;19.12;8.40;;;;;;;-4.28;100.00;101110.62;1806231;79;21533;-90
2022/02/05 04:17:53;;;;;;;17.17;7.80;;;;;;;-4.54;100.00;101117.09;1806164;79;21029;-89
2022/02/05 04:20:19;;;;;;;17.50;8.20;;;;;;;-4.62;100.00;101115.69;1774906;79;21021;-89
2022/02/05 04:22:45;;;;;;;15.68;7.53;;;;;;;-4.66;100.00;101123.05;1806670;79;21634;-89
2022/02/05 04:25:12;;;;;;;18.50;7.78;;;;;;;-4.70;100.00;101125.64;1806747;79;21059;-89
2022/02/05 04:27:40;;;;;;;17.80;7.25;;;;;;;-4.74;100.00;101127.39;1806821;78;20996;-89
2022/02/05 04:30:08;;;;;;;20.70;7.67;;;;;;;-4.81;100.00;101129.78;1745854;82;21951;-89
2022/02/05 04:32:34;;;;;;;19.60;7.97;;;;;;;-4.87;100.00;101134.31;1745375;82;21010;-89
2022/02/05 04:35:00;;;;;;;18.75;7.60;;;;;;;-4.88;100.00;101142.69;1745992;82;20867;-89
2022/02/05 04:37:28;;;;;;;19.92;8.30;;;;;;;-4.92;100.00;101149.19;1745536;82;20939;-90
2022/02/05 04:40:24;;;;;;;20.95;7.67;;;;;;;-4.95;100.00;101152.59;1741157;81;21421;-89
2022/02/05 04:42:46;;;;;;;17.60;7.85;;;;;;;-5.02;100.00;101162.37;1716429;83;21018;-89
2022/02/05 04:58:05;;;;;;;18.12;8.33;;;;;;;-5.45;100.00;101148.95;1535726;93;21596;-89
2022/02/05 05:05:35;;;;;;;19.15;7.85;;;;;;;-5.46;100.00;101186.20;1511185;93;21171;-90
2022/02/05 05:08:13;;;;;;;21.50;8.73;;;;;;;-5.52;100.00;101190.70;1482288;95;21119;-90
2022/02/05 05:19:13;;;;;;;18.57;8.65;;;;;;;-5.50;100.00;101196.63;1470382;97;21036;-90
2022/02/05 05:20:54;;;;;;;17.55;8.53;;;;;;;-5.48;100.00;101192.90;1453037;97;21784;-90
2022/02/05 05:23:20;;;;;;;23.15;8.65;;;;;;;-5.47;100.00;101201.62;1446961;98;21131;-88
2022/02/05 05:25:46;;;;;;;25.23;8.20;;;;;;;-5.48;100.00;101200.77;1450987;98;21166;-89
2022/02/05 05:28:13;;;;;;;18.87;8.48;;;;;;;-5.45;100.00;101200.98;1456518;98;21229;-89
2022/02/05 05:30:39;;;;;;;21.20;8.20;;;;;;;-5.43;100.00;101208.73;1442184;98;21627;-89
2022/02/05 05:33:05;;;;;;;22.62;9.08;;;;;;;-5.43;100.00;101209.55;1456723;98;21435;-89
2022/02/05 05:35:30;;;;;;;22.22;8.95;;;;;;;-5.37;100.00;101212.11;1475874;95;27071;-90
2022/02/05 05:37:56;;;;;;;21.95;9.13;;;;;;;-5.31;100.00;101209.74;1487177;94;21031;-89
2022/02/05 05:40:22;;;;;;;20.27;8.70;;;;;;;-5.27;100.00;101210.28;1477715;95;21127;-89
2022/02/05 05:43:02;;;;;;;20.02;8.53;;;;;;;-5.20;100.00;101213.19;1476485;94;21001;-88
2022/02/05 05:45:37;;;;;;;21.25;8.80;;;;;;;-5.11;100.00;101214.97;1476372;95;21195;-89
2022/02/05 05:47:55;;;;;;;24.87;9.65;;;;;;;-5.05;100.00;101218.34;1602324;87;21118;-89
2022/02/05 05:53:13;;;;;;;25.20;9.10;;;;;;;-4.82;100.00;101211.76;1629130;87;21081;-90
2022/02/05 05:55:46;;;;;;;22.87;8.43;;;;;;;-4.66;100.00;101209.81;1632109;87;21117;-90
2022/02/05 05:58:13;;;;;;;;;;;;;;;-4.41;100.00;101203.06;1589644;90;21077;-89
2022/02/05 06:00:40;;;;;;;19.82;8.03;;;;;;;-4.14;100.00;101199.56;1587516;90;20168;-87
2022/02/05 06:03:07;;;;;;;25.72;8.35;;;;;;;-3.73;100.00;101199.95;1593545;89;21104;-87
2022/02/05 06:05:33;;;;;;;26.20;8.18;;;;;;;-3.24;100.00;101202.13;1593050;89;21253;-87
2022/02/05 06:07:59;;;;;;;21.95;8.58;;;;;;;-2.70;100.00;101204.11;1577548;90;21009;-87
2022/02/05 06:10:25;;;;;;;19.60;7.53;;;;;;;-1.81;100.00;101197.92;1577763;90;21110;-87
2022/02/05 06:12:51;;;;;;;18.30;7.33;;;;;;;-0.77;100.00;101205.89;1642089;85;21657;-86
2022/02/05 06:15:17;;;;;;;17.20;7.10;;;;;;;0.20;100.00;101209.55;1652840;85;21008;-87
2022/02/05 06:17:43;;;;;;;15.78;6.95;;;;;;;1.21;100.00;101202.20;1643413;86;20899;-89
2022/02/05 06:20:10;;;;;;;16.73;6.80;;;;;;;2.27;100.00;101205.59;1647855;86;21047;-86
2022/02/05 06:22:39;;;;;;;18.12;7.08;;;;;;;3.11;100.00;101207.47;1645189;85;21889;-87
2022/02/05 06:25:07;;;;;;;16.40;6.22;;;;;;;4.27;100.00;101200.05;1689470;83;21029;-86
2022/02/05 06:27:33;;;;;;;14.75;6.28;;;;;;;5.47;100.00;101196.72;1681934;84;21119;-87
2022/02/05 06:29:59;;;;;;;13.20;6.53;;;;;;;6.39;100.00;101191.95;1689073;84;21163;-86
2022/02/05 06:32:25;;;;;;;12.60;6.03;;;;;;;6.63;97.81;101191.66;1692088;84;20955;-86
2022/02/05 06:34:51;;;;;;;15.65;6.55;;;;;;;6.89;89.61;101189.28;1692291;84;21299;-86
2022/02/05 06:37:18;;;;;;;12.98;6.75;;;;;;;7.08;91.21;101194.13;1687355;83;21111;-86
2022/02/05 06:39:45;;;;;;;12.70;6.17;;;;;;;7.82;86.01;101193.58;1658635;85;21154;-86
2022/02/05 06:42:11;;;;;;;13.95;6.83;;;;;;;9.05;88.62;101189.94;1672894;84;21078;-86
2022/02/05 06:44:38;;;;;;;13.88;7.17;;;;;;;9.97;75.41;101187.77;1679449;85;21738;-86
2022/02/05 06:47:06;;;;;;;12.75;6.70;;;;;;;10.80;71.91;101195.70;1632306;87;21336;-85
2022/02/05 06:49:34;;;;;;;16.55;7.70;;;;;;;11.54;65.02;101194.55;1663964;85;21061;-85
2022/02/05 06:52:02;;;;;;;13.08;6.97;;;;;;;12.20;62.08;101196.64;1661531;85;21146;-85
2022/02/05 06:54:30;;;;;;;15.28;7.70;;;;;;;12.34;57.45;101193.53;1645607;84;21055;-85
2022/02/05 06:56:56;;;;;;;16.07;8.18;;;;;;;12.88;57.10;101181.23;1747120;79;21110;-85
2022/02/05 06:59:22;;;;;;;15.23;8.53;;;;;;;13.30;51.76;101182.61;1755428;79;21155;-85
2022/02/05 07:01:48;;;;;;;14.28;8.10;;;;;;;14.16;51.82;101183.14;1770909;80;20876;-85
2022/02/05 07:04:15;;;;;;;16.20;8.33;;;;;;;15.09;51.81;101172.52;1775263;80;33507;-85
2022/02/05 07:06:40;;;;;;;13.40;8.00;;;;;;;16.16;49.22;101174.75;1800118;79;20862;-85
2022/02/05 07:09:06;;;;;;;15.05;8.28;;;;;;;16.87;47.41;101169.83;1769622;79;20888;-85
2022/02/05 07:11:35;;;;;;;14.03;7.90;;;;;;;17.32;45.02;101156.79;1819412;77;21809;-85
2022/02/05 07:14:03;;;;;;;12.37;8.15;;;;;;;17.48;42.10;101156.88;1824230;78;21067;-85
2022/02/05 07:19:18;;;;;;;12.35;7.78;;;;;;;18.86;42.34;101164.89;1747290;81;20999;-86
2022/02/05 07:21:35;;;;;;;13.05;7.58;;;;;;;19.56;40.54;101158.27;1739798;80;21104;-86
2022/02/05 07:24:18;;;;;;;12.13;7.42;;;;;;;20.06;39.34;101161.84;1744214;81;21084;-86
2022/02/05 07:29:14;;;;;;;10.68;7.53;;;;;;;20.84;36.00;101155.50;1745737;81;21012;-86
2022/02/05 07:31:51;;;;;;;11.05;7.55;;;;;;;21.40;37.15;101149.03;1744634;81;21044;-86
2022/02/05 07:34:21;;;;;;;10.70;7.50;;;;;;;22.31;35.95;101151.43;1747060;80;21134;-86
2022/02/05 07:36:49;;;;;;;10.60;7.50;;;;;;;22.99;34.71;101147.45;1736265;81;21139;-86
2022/02/05 07:39:16;;;;;;;12.55;7.97;;;;;;;23.15;32.85;101142.77;1742332;81;21143;-86
2022/02/05 07:41:43;;;;;;;11.63;7.97;;;;;;;23.12;32.21;101141.52;1744182;80;20983;-86
2022/02/05 07:44:13;;;;;;;11.18;7.90;;;;;;;23.38;30.70;101146.04;1747037;82;20994;-86
2022/02/05 07:46:47;;;;;;;15.78;8.95;;;;;;;23.61;30.41;101154.22;1736233;81;20995;-87
2022/02/05 07:49:14;;;;;;;10.95;7.67;;;;;;;24.05;30.04;101160.23;1743126;81;21038;-86
2022/02/05 07:51:40;;;;;;;12.37;8.43;;;;;;;24.48;29.49;101156.30;1751085;81;21002;-87
2022/02/05 07:54:10;;;;;;;11.63;8.03;;;;;;;24.74;29.01;101151.87;1740853;81;21028;-88
2022/02/05 07:56:34;;;;;;;11.95;7.72;;;;;;;24.75;27.91;101150.71;1742134;81;21087;-87
2022/02/05 07:59:00;;;;;;;10.85;7.62;;;;;;;24.40;26.93;101151.64;1744640;81;20903;-87
2022/02/05 08:01:25;;;;;;;10.10;7.37;;;;;;;24.46;27.36;101154.44;1744291;82;21945;-87
2022/02/05 08:03:51;;;;;;;9.13;6.97;;;;;;;23.21;25.96;101153.84;1744624;82;20919;-87
2022/02/05 08:06:17;;;;;;;9.93;7.37;;;;;;;23.32;27.70;101149.01;1750007;81;20879;-84
2022/02/05 08:08:47;;;;;;;9.68;7.22;;;;;;;23.44;26.81;101145.53;1745740;81;22024;-84
2022/02/05 08:11:16;;;;;;;10.53;7.20;;;;;;;23.83;26.74;101141.33;1725249;81;21054;-84
2022/02/05 08:13:42;;;;;;;10.08;7.37;;;;;;;24.22;24.57;101140.79;1738069;81;21080;-84
2022/02/05 08:18:49;;;;;;;8.88;7.35;;;;;;;24.75;25.47;101145.20;1822031;78;20975;-86
2022/02/05 08:21:15;;;;;;;9.43;6.78;;;;;;;24.53;25.02;101135.96;1821444;78;20941;-84
2022/02/05 08:23:41;;;;;;;9.63;7.03;;;;;;;23.96;24.78;101141.60;1823415;77;20974;-84
2022/02/05 08:26:07;;;;;;;8.78;6.65;;;;;;;24.30;25.03;101134.97;1808021;78;21141;-84
2022/02/05 08:28:34;;;;;;;9.28;7.05;;;;;;;24.64;25.03;101133.00;1821542;78;20956;-87
2022/02/05 08:31:01;;;;;;;8.25;6.90;;;;;;;25.00;24.04;101132.80;1779755;79;21034;-89
2022/02/05 08:33:27;;;;;;;5.87;4.90;;;;;;;24.46;23.94;101137.33;1778353;78;21071;-87
2022/02/05 08:35:53;;;;;;;7.75;5.60;;;;;;;24.32;23.40;101138.75;1769323;80;21614;-88
2022/02/05 08:38:19;;;;;;;5.95;4.72;;;;;;;24.08;23.96;101136.14;1789439;80;21425;-85
2022/02/05 08:40:46;;;;;;;7.28;5.60;;;;;;;24.50;23.34;101129.76;1780428;78;21131;-85
2022/02/05 08:43:12;;;;;;;7.67;5.97;;;;;;;24.46;22.79;101122.17;1809564;78;20948;-85
2022/02/05 08:45:51;;;;;;;7.75;5.58;;;;;;;24.92;22.68;101124.89;1815642;78;21012;-86
2022/02/05 08:48:17;;;;;;;9.43;6.17;;;;;;;24.43;21.86;101122.86;1815376;78;20952;-86
2022/02/05 08:50:43;;;;;;;11.18;6.97;;;;;;;21.50;22.23;101117.74;1820871;78;21282;-86
2022/02/05 08:53:20;;;;;;;10.88;6.60;;;;;;;19.39;23.16;101125.56;1779951;78;21020;-86
2022/02/05 08:55:56;;;;;;;11.63;7.00;;;;;;;16.89;24.75;101129.52;1620258;86;21185;-85
2022/02/05 08:58:37;;;;;;;;;;;;;;;;;;;;;
2022/02/05 09:04:01;;;;;;;11.48;6.75;;;;;;;11.29;27.92;101131.08;1483473;96;21148;-88
2022/02/05 09:06:30;;;;;;;16.10;7.25;;;;;;;9.96;30.45;101126.39;1394551;101;21041;-88
2022/02/05 09:09:15;;;;;;;12.45;6.62;;;;;;;9.13;31.49;101133.66;1393413;101;21196;-87
2022/02/05 09:11:43;;;;;;;12.93;6.08;;;;;;;8.23;31.75;101133.44;1378881;102;21204;-88
2022/02/05 09:14:15;;;;;;;14.50;7.05;;;;;;;7.29;32.91;101127.20;1373982;103;21699;-88
2022/02/05 09:16:41;;;;;;;12.30;6.58;;;;;;;6.76;35.25;101135.29;1373476;104;21192;-88
2022/02/05 09:19:13;;;;;;;11.70;5.97;;;;;;;6.27;35.00;101122.77;1378716;102;21165;-89
2022/02/05 09:21:43;;;;;;;14.18;6.17;;;;;;;5.92;37.06;101121.33;1390303;102;21184;-88
2022/02/05 09:24:17;;;;;;;14.15;7.30;;;;;;;5.84;37.23;101114.89;1338832;105;21219;-89
2022/02/05 09:26:56;;;;;;;20.50;6.75;;;;;;;5.66;37.27;101117.48;1317283;107;21253;-88
2022/02/05 09:29:22;;;;;;;15.88;6.40;;;;;;;5.38;37.87;101112.47;1296311;110;21284;-88
2022/02/05 09:31:50;;;;;;;17.10;6.15;;;;;;;4.90;38.27;101114.19;1288852;109;21987;-88
2022/02/05 09:34:21;;;;;;;13.78;5.87;;;;;;;4.66;39.92;101115.67;1322559;108;21107;-89
2022/02/05 09:36:46;;;;;;;17.48;6.55;;;;;;;4.36;39.76;101106.77;1291265;107;21961;-90
2022/02/05 09:39:18;;;;;;;12.15;5.58;;;;;;;4.05;40.24;101106.03;1287839;111;21307;-88
2022/02/05 09:41:45;;;;;;;14.87;6.72;;;;;;;3.90;40.76;101108.08;1287491;110;21217;-89
2022/02/05 09:54:08;;;;;;;16.15;7.12;;;;;;;2.95;43.33;101106.62;1255139;113;21315;-89
2022/02/05 09:56:38;;;;;;;14.75;6.35;;;;;;;2.69;44.33;101105.96;1277694;111;21163;-89
2022/02/05 09:59:07;;;;;;;13.32;6.42;;;;;;;2.51;44.78;101103.80;1277789;110;21303;-89
2022/02/05 10:01:36;;;;;;;13.05;6.20;;;;;;;2.35;44.33;101099.57;1278734;108;21202;-89
2022/02/05 10:04:10;;;;;;;14.43;6.33;;;;;;;2.27;45.84;101099.22;1349771;105;21190;-90
2022/02/05 10:06:41;;;;;;;17.32;6.03;;;;;;;2.22;45.14;101103.47;1380128;101;21671;-89
2022/02/05 10:09:14;;;;;;;19.70;6.25;;;;;;;2.19;46.05;101096.70;1376958;103;21615;-89
2022/02/05 10:12:11;;;;;;;;;;;;;;;;;;;;;
2022/02/05 10:14:33;;;;;;;12.93;5.30;;;;;;;1.88;45.09;101089.05;1376253;102;21146;-88
2022/02/05 10:17:03;;;;;;;14.45;5.20;;;;;;;1.81;46.76;101100.95;1375590;103;21202;-90
2022/02/05 10:19:55;;;;;;;13.13;5.65;;;;;;;1.74;46.44;101104.06;1375460;103;21146;-88
2022/02/05 10:22:25;;;;;;;14.47;6.08;;;;;;;1.61;47.13;101102.58;1411147;101;21239;-87
2022/02/05 10:24:54;;;;;;;14.25;6.17;;;;;;;1.58;47.99;101105.10;1410744;101;21218;-89
2022/02/05 10:27:40;;;;;;;16.95;6.85;;;;;;;1.55;47.97;101095.37;1412768;100;21171;-88
2022/02/05 10:30:11;;;;;;;15.80;6.10;;;;;;;1.55;47.63;101096.70;1370722;103;21750;-88
2022/02/05 10:32:45;;;;;;;19.32;6.05;;;;;;;1.53;49.27;101091.59;1366517;105;21206;-89
2022/02/05 10:35:34;;;;;;;14.50;6.28;;;;;;;1.40;48.53;101091.42;1366604;102;21206;-88
2022/02/05 10:38:01;;;;;;;16.85;6.58;;;;;;;1.26;49.41;101090.95;1362743;103;21553;-88
2022/02/05 10:40:43;;;;;;;17.00;6.50;;;;;;;1.29;50.34;101094.56;1357443;104;21196;-89
2022/02/05 10:43:02;;;;;;;14.90;5.62;;;;;;;1.31;51.10;101100.52;1342279;104;21238;-89
2022/02/05 10:45:50;;;;;;;18.02;6.90;;;;;;;1.31;50.05;101099.19;1381442;102;21241;-89
2022/02/05 10:48:20;;;;;;;15.72;6.78;;;;;;;1.26;50.54;101090.95;1402393;100;21194;-91
2022/02/05 10:50:50;;;;;;;17.55;6.22;;;;;;;1.30;51.91;101090.41;1409324;98;21180;-89
2022/02/05 10:53:32;;;;;;;13.58;5.80;;;;;;;1.28;52.28;101091.09;1361715;101;21186;-89
2022/02/05 11:07:20;;;;;;;15.32;6.40;;;;;;;1.27;54.00;101089.45;1367842;104;21153;-88
2022/02/05 11:09:57;;;;;;;14.40;6.15;;;;;;;1.24;53.93;101086.35;1358269;102;21110;-88
2022/02/05 11:20:29;;;;;;;14.45;5.67;;;;;;;1.08;55.22;101078.89;1355753;105;21221;-87
2022/02/05 11:23:07;;;;;;;16.37;5.55;;;;;;;1.13;56.53;101077.02;1323901;108;21050;-87
2022/02/05 11:25:39;;;;;;;14.65;5.45;;;;;;;1.12;55.83;101070.90;1340742;104;21173;-87
2022/02/05 11:28:07;;;;;;;15.48;6.12;;;;;;;1.10;53.85;101066.78;1370637;101;21241;-88
2022/02/05 11:30:51;;;;;;;16.50;6.35;;;;;;;1.01;54.21;101066.57;1419778;97;21343;-88
2022/02/05 11:33:29;;;;;;;16.05;6.60;;;;;;;0.97;54.71;101054.66;1468492;97;27699;-88
2022/02/05 11:38:42;;;;;;;16.23;7.10;;;;;;;1.16;56.48;101050.63;1495772;95;21174;-89
2022/02/05 11:41:33;;;;;;;17.82;6.67;;;;;;;1.21;57.09;101049.05;1494474;95;22093;-88
2022/02/05 11:44:29;;;;;;;20.20;7.62;;;;;;;1.23;58.23;101052.33;1486337;95;21043;-89
2022/02/05 11:47:15;;;;;;;16.90;6.95;;;;;;;1.26;56.91;101045.82;1535758;91;21278;-88
2022/02/05 11:49:58;;;;;;;18.15;7.55;;;;;;;1.24;57.16;101047.35;1533793;90;21067;-89
2022/02/05 11:52:44;;;;;;;27.65;10.20;;;;;;;1.26;57.99;101045.31;1555053;90;21073;-89
2022/02/05 11:55:18;;;;;;;21.80;7.85;;;;;;;1.24;57.88;101050.00;1586418;85;21179;-89
2022/02/05 11:58:01;;;;;;;23.18;8.60;;;;;;;1.26;57.29;101036.02;1617133;86;21080;-89
2022/02/05 12:00:35;;;;;;;19.98;7.90;;;;;;;1.22;58.20;101039.25;1670734;83;27033;-89
2022/02/05 12:03:28;;;;;;;18.90;8.10;;;;;;;1.23;58.81;101037.72;1582391;89;21039;-88
2022/02/05 12:06:02;;;;;;;20.25;8.55;;;;;;;1.20;59.68;101038.61;1580924;89;21101;-89
2022/02/05 12:08:36;;;;;;;21.55;8.63;;;;;;;1.16;58.41;101032.86;1579934;90;21229;-88
2022/02/05 12:11:23;;;;;;;23.67;9.73;;;;;;;1.16;59.50;101040.00;1579851;90;21045;-88
2022/02/05 12:14:08;;;;;;;26.75;9.43;;;;;;;1.19;60.57;101033.81;1583212;89;21069;-87
2022/02/05 12:16:36;;;;;;;27.10;9.55;;;;;;;1.27;60.34;101032.38;1584691;88;21168;-87
2022/02/05 12:19:17;;;;;;;30.82;10.70;;;;;;;1.31;59.67;101024.34;1604079;88;21066;-87
2022/02/05 12:21:56;;;;;;;31.25;11.50;;;;;;;1.36;59.85;101019.80;1598594;88;21062;-87
2022/02/05 12:24:41;;;;;;;29.45;10.25;;;;;;;1.37;61.68;101012.15;1603897;88;21081;-87
2022/02/05 12:30:35;;;;;;;37.55;17.45;;;;;;;1.38;60.77;101010.31;1549314;90;21148;-88
2022/02/05 12:33:07;;;;;;;27.22;10.25;;;;;;;1.36;61.22;101014.50;1548686;91;21710;-87
2022/02/05 12:35:37;;;;;;;27.55;9.93;;;;;;;1.42;61.23;101015.58;1501888;93;21694;-87
2022/02/05 12:40:52;;;;;;;28.12;10.53;;;;;;;1.48;62.83;101017.47;1493796;91;21141;-87
2022/02/05 12:43:23;;;;;;;31.85;11.50;;;;;;;1.49;60.76;101011.95;1489605;93;21115;-87
2022/02/05 12:45:56;;;;;;;31.57;11.45;;;;;;;1.48;62.13;101017.47;1511670;93;21123;-87
2022/02/05 12:48:25;;;;;;;32.17;11.10;;;;;;;1.48;61.02;101013.49;1496151;93;20979;-88
2022/02/05 12:50:59;;;;;;;32.33;11.90;;;;;;;1.42;60.06;101012.41;1517160;91;21192;-88
2022/02/05 12:53:35;;;;;;;32.55;12.20;;;;;;;1.40;60.80;101016.27;1515140;92;21093;-87
2022/02/05 12:56:18;;;;;;;37.25;12.85;;;;;;;1.40;61.31;101020.24;1509300;91;21111;-87
2022/02/05 12:59:01;;;;;;;33.77;11.37;;;;;;;1.34;61.03;101023.15;1512477;92;21083;-87
2022/02/05 13:01:25;;;;;;;33.15;12.55;;;;;;;1.33;62.98;101017.53;1577988;89;21051;-88
2022/02/05 13:03:51;;;;;;;34.40;12.78;;;;;;;1.30;62.68;101016.58;1565547;89;21784;-88
2022/02/05 13:06:21;;;;;;;33.13;12.28;;;;;;;1.31;63.95;101019.55;1582802;89;21080;-88
2022/02/05 13:08:49;;;;;;;32.93;12.90;;;;;;;1.31;63.26;101024.85;1576872;88;21107;-88
2022/02/05 13:11:27;;;;;;;35.25;13.40;;;;;;;1.31;63.81;101024.85;1571979;89;21117;-88
2022/02/05 13:13:53;;;;;;;38.92;14.50;;;;;;;1.31;65.06;101023.02;1557133;90;21069;-88
2022/02/05 13:16:30;;;;;;;35.70;12.85;;;;;;;1.31;66.30;101027.50;1575933;90;21925;-88
2022/02/05 13:19:17;;;;;;;37.00;12.55;;;;;;;1.31;66.41;101024.34;1505468;94;21543;-88
2022/02/05 13:27:26;;;;;;;40.98;14.68;;;;;;;1.31;64.87;101030.16;1449331;97;21140;-87
2022/02/05 13:29:57;;;;;;;39.10;14.43;;;;;;;1.30;64.96;101025.88;1441238;97;21080;-88
2022/02/05 13:35:07;;;;;;;28.98;11.08;;;;;;;1.18;66.27;101023.36;1522024;93;21177;-87
2022/02/05 13:37:50;;;;;;;24.72;9.10;;;;;;;1.09;66.29;101011.56;1477212;95;21548;-87
2022/02/05 13:40:08;;;;;;;24.60;8.68;;;;;;;0.99;65.12;101019.48;1515632;92;21097;-87
2022/02/05 13:42:42;;;;;;;20.60;8.60;;;;;;;0.88;67.41;101018.97;1542671;91;21048;-87
2022/02/05 13:45:12;;;;;;;24.95;9.23;;;;;;;0.85;67.77;101021.15;1540002;93;21009;-87
2022/02/05 13:47:52;;;;;;;18.70;7.78;;;;;;;0.81;70.59;101021.21;1537251;93;21523;-87
2022/02/05 13:50:28;;;;;;;23.27;8.58;;;;;;;0.82;72.14;101017.03;1520614;92;21359;-88
2022/02/05 13:53:02;;;;;;;24.23;9.53;;;;;;;0.81;71.20;101011.42;1513220;93;21591;-88
2022/02/05 13:58:14;;;;;;;27.73;8.80;;;;;;;0.85;71.50;101014.04;1381938;103;21646;-87
2022/02/05 14:00:48;;;;;;;21.25;8.60;;;;;;;0.86;71.59;101014.86;1381866;103;21300;-88
2022/02/05 14:03:37;;;;;;;20.88;8.30;;;;;;;0.82;72.27;101011.73;1381774;102;21197;-88
2022/02/05 14:06:13;;;;;;;21.52;7.85;;;;;;;0.81;70.59;101014.07;1422008;100;22193;-87
2022/02/05 14:08:49;;;;;;;20.23;7.97;;;;;;;0.75;72.08;101008.69;1427121;99;21744;-88
2022/02/05 14:11:29;;;;;;;30.37;10.13;;;;;;;0.70;72.45;101010.55;1470078;95;21156;-87
2022/02/05 14:13:57;;;;;;;22.73;9.23;;;;;;;0.64;72.87;101008.64;1485930;95;21136;-88
2022/02/05 14:16:41;;;;;;;23.95;8.45;;;;;;;0.65;74.81;101007.15;1500131;94;21073;-88
2022/02/05 14:19:08;;;;;;;23.22;8.53;;;;;;;0.66;73.97;101007.97;1503779;94;21033;-87
2022/02/05 14:21:44;;;;;;;24.75;8.33;;;;;;;0.58;73.19;101006.73;1504033;94;21038;-87
2022/02/05 14:24:26;;;;;;;28.87;9.15;;;;;;;0.47;74.99;100996.58;1504042;94;21078;-87
2022/02/05 14:29:39;;;;;;;32.80;7.97;;;;;;;0.32;76.73;100992.09;1399792;101;21118;-87
2022/02/05 14:32:10;;;;;;;24.23;8.03;;;;;;;0.21;76.78;100992.06;1382780;102;21145;-87
2022/02/05 14:42:21;;;;;;;23.42;8.50;;;;;;;-0.13;78.99;100990.42;1367838;104;22193;-88
2022/02/05 14:44:48;;;;;;;20.65;8.00;;;;;;;-0.21;79.28;100993.13;1365319;104;22516;-90
2022/02/05 14:47:21;;;;;;;21.93;8.45;;;;;;;-0.30;80.84;100999.00;1373317;104;21239;-89
2022/02/05 14:49:47;;;;;;;32.75;10.13;;;;;;;-0.40;80.38;100999.25;1363252;104;21593;-90
2022/02/05 14:52:16;;;;;;;37.75;12.07;;;;;;;-0.55;81.65;100995.23;1362500;105;21154;-90